Plainville, Connecticut
Current Conditions -  °F | °C
As of 5:53 AM on Wednesday 26 Nov 2014 (Local Time) from KMMK Reporting Station
Overcast Overcast  
Wind Chill: 37°   Ceiling: 7000
Heat Index: 42°   Visibility: 10mi
Dew Point: 29°   Wind: 9mph
Humidity: 60%   Direction: 360°N
Pressure: 30.15"   Gusts: NA
Location:  41.67°N, 72.86°W
Report Text: KMMK 261053Z AUTO 36008KT 10SM BKN070 OVC085 06/M02 A3015 RMK AO2 RAB23E33 SLP210 P0000 T00561017 TSNO
Loading
Personal Weather Stations






























Interactive Weather Map New forecast layout! Learn more

10-Day Weather Forecast

Advertisements
Track Severe Weather on mobile